Harrisonburg, Virginia
Current Conditions -  °F | °C
As of 3:35 AM on Monday 26 Jan 2015 (Local Time) from KVBW Reporting Station
Overcast Overcast  
Wind Chill: 35°   Ceiling: 2700
Heat Index: 35°   Visibility: 7mi
Dew Point: 33°   Wind: 0mph
Humidity: 91%   Direction: NA
Pressure: 29.7"   Gusts: NA
Location:  38.45°N, 78.87°W
Report Text: KVBW 260835Z AUTO 00000KT 7SM BKN027 OVC039 02/01 A2970 RMK AO2 P0001 T00180005
Loading
Personal Weather Stations






























Interactive Weather Map New forecast layout! Learn more

10-Day Weather Forecast

Advertisements
Track Severe Weather on mobile